createdAt,value
2018-06-30T00:01:49.624Z,100.00
2018-06-30T00:04:18.456Z,100.00
2018-06-30T00:06:47.261Z,100.00
2018-06-30T00:09:16.026Z,100.00
2018-06-30T00:11:44.787Z,100.00
2018-06-30T00:14:13.539Z,100.00
2018-06-30T00:16:42.323Z,100.00
2018-06-30T00:19:11.123Z,100.00
2018-06-30T00:21:39.927Z,100.00
2018-06-30T00:24:08.700Z,100.00
2018-06-30T00:26:37.471Z,100.00
2018-06-30T00:29:06.275Z,100.00
2018-06-30T00:31:35.028Z,100.00
2018-06-30T00:34:03.799Z,100.00
2018-06-30T00:36:32.561Z,100.00
2018-06-30T00:39:01.348Z,100.00
2018-06-30T00:41:30.186Z,100.00
2018-06-30T00:43:58.942Z,100.00
2018-06-30T00:46:27.712Z,100.00
2018-06-30T00:48:56.444Z,100.00
2018-06-30T00:51:25.215Z,100.00
2018-06-30T00:53:53.993Z,100.00
2018-06-30T00:56:22.724Z,100.00
2018-06-30T00:58:51.471Z,100.00
2018-06-30T01:01:20.231Z,100.00
2018-06-30T01:03:48.985Z,100.00
2018-06-30T01:06:17.764Z,100.00
2018-06-30T01:08:46.542Z,100.00
2018-06-30T01:11:15.271Z,100.00
2018-06-30T01:13:44.006Z,100.00
2018-06-30T01:16:12.738Z,100.00
2018-06-30T01:18:41.565Z,100.00
2018-06-30T01:21:10.314Z,100.00
2018-06-30T01:23:39.037Z,100.00
2018-06-30T01:26:07.913Z,100.00
2018-06-30T01:28:36.690Z,100.00
2018-06-30T01:31:05.518Z,100.00
2018-06-30T01:33:34.297Z,100.00
2018-06-30T01:36:03.060Z,100.00
2018-06-30T01:38:31.808Z,100.00
2018-06-30T01:41:00.559Z,100.00
2018-06-30T01:43:29.326Z,100.00
2018-06-30T01:45:58.054Z,100.00
2018-06-30T01:48:26.785Z,100.00
2018-06-30T01:50:55.547Z,100.00
2018-06-30T01:53:24.295Z,100.00
2018-06-30T01:55:53.126Z,100.00
2018-06-30T01:58:22.015Z,100.00
2018-06-30T02:00:50.778Z,100.00
2018-06-30T02:03:19.546Z,100.00
2018-06-30T02:05:48.328Z,100.00
2018-06-30T02:08:17.102Z,100.00
2018-06-30T02:10:45.862Z,100.00
2018-06-30T02:13:14.611Z,100.00
2018-06-30T02:15:43.344Z,100.00
2018-06-30T02:18:12.094Z,100.00
2018-06-30T02:20:40.869Z,100.00
2018-06-30T02:23:09.618Z,100.00
2018-06-30T02:25:39.093Z,100.00
2018-06-30T02:28:07.877Z,100.00
2018-06-30T02:30:36.703Z,100.00
2018-06-30T02:33:05.457Z,100.00
2018-06-30T02:35:34.216Z,100.00
2018-06-30T02:38:03.095Z,100.00
2018-06-30T02:40:31.854Z,100.00
2018-06-30T02:43:00.825Z,100.00
2018-06-30T02:45:29.628Z,100.00
2018-06-30T02:47:58.346Z,100.00
2018-06-30T02:50:27.098Z,100.00
2018-06-30T02:52:58.671Z,100.00
2018-06-30T02:55:27.476Z,100.00
2018-06-30T02:57:56.202Z,100.00
2018-06-30T03:00:24.942Z,100.00
2018-06-30T03:02:53.887Z,100.00
2018-06-30T03:05:22.686Z,100.00
2018-06-30T03:07:51.472Z,100.00
2018-06-30T03:10:20.257Z,100.00
2018-06-30T03:12:49.008Z,100.00
2018-06-30T03:15:17.778Z,100.00
2018-06-30T03:17:46.518Z,100.00
2018-06-30T03:20:15.280Z,100.00
2018-06-30T03:22:44.041Z,100.00
2018-06-30T03:25:12.796Z,100.00
2018-06-30T03:27:41.587Z,100.00
2018-06-30T03:30:10.366Z,100.00
2018-06-30T03:32:39.117Z,100.00
2018-06-30T03:35:07.892Z,100.00
2018-06-30T03:37:36.688Z,100.00
2018-06-30T03:40:05.444Z,100.00
2018-06-30T03:42:34.187Z,100.00
2018-06-30T03:45:03.017Z,100.00
2018-06-30T03:47:31.784Z,100.00
2018-06-30T03:50:00.517Z,100.00
2018-06-30T03:52:29.270Z,100.00
2018-06-30T03:54:58.022Z,100.00
2018-06-30T03:57:26.738Z,99.18
2018-06-30T03:59:55.514Z,98.76
2018-06-30T04:02:24.245Z,100.00
2018-06-30T04:04:52.982Z,100.00
2018-06-30T04:07:21.766Z,100.00
2018-06-30T04:09:50.491Z,100.00
2018-06-30T04:12:19.266Z,100.00
2018-06-30T04:14:48.016Z,100.00
2018-06-30T04:17:16.782Z,100.00
2018-06-30T04:19:46.622Z,100.00
2018-06-30T04:22:16.226Z,99.95
2018-06-30T04:24:45.026Z,98.89
2018-06-30T04:27:13.799Z,98.95
2018-06-30T04:29:42.578Z,96.51
2018-06-30T04:32:11.343Z,95.71
2018-06-30T04:34:40.106Z,95.98
2018-06-30T04:37:08.902Z,96.25
2018-06-30T04:39:37.680Z,94.67
2018-06-30T04:42:06.471Z,95.08
2018-06-30T04:44:35.226Z,94.85
2018-06-30T04:47:04.013Z,94.18
2018-06-30T04:49:32.779Z,93.73
2018-06-30T04:52:01.524Z,94.36
2018-06-30T04:54:30.447Z,93.57
2018-06-30T04:56:59.204Z,94.57
2018-06-30T04:59:28.046Z,94.02
2018-06-30T05:01:56.817Z,93.15
2018-06-30T05:04:25.557Z,94.02
2018-06-30T05:06:54.312Z,94.80
2018-06-30T05:09:23.103Z,95.59
2018-06-30T05:11:51.853Z,95.27
2018-06-30T05:14:20.610Z,95.68
2018-06-30T05:16:49.337Z,92.87
2018-06-30T05:19:18.094Z,92.33
2018-06-30T05:21:46.874Z,94.75
2018-06-30T05:24:15.667Z,93.10
2018-06-30T05:26:44.463Z,92.32
2018-06-30T05:29:13.208Z,90.70
2018-06-30T05:31:41.942Z,87.70
2018-06-30T05:34:10.726Z,87.25
2018-06-30T05:36:39.577Z,85.46
2018-06-30T05:39:08.950Z,85.52
2018-06-30T05:41:38.324Z,83.23
2018-06-30T05:44:07.177Z,82.10
2018-06-30T05:46:35.934Z,81.81
2018-06-30T05:49:04.703Z,79.02
2018-06-30T05:51:33.489Z,79.62
2018-06-30T05:54:02.301Z,78.98
2018-06-30T05:56:31.018Z,77.74
2018-06-30T05:58:59.958Z,77.78
2018-06-30T06:01:28.956Z,78.61
2018-06-30T06:03:58.002Z,81.04
2018-06-30T06:06:26.963Z,80.52
2018-06-30T06:08:55.942Z,80.54
2018-06-30T06:11:25.000Z,80.15
2018-06-30T06:13:53.975Z,81.15
2018-06-30T06:16:23.019Z,81.74
2018-06-30T06:18:51.984Z,84.08
2018-06-30T06:21:20.937Z,82.88
2018-06-30T06:23:49.934Z,84.36
2018-06-30T06:26:18.936Z,85.82
2018-06-30T06:28:47.882Z,84.95
2018-06-30T06:31:16.790Z,84.60
2018-06-30T06:33:45.698Z,84.03
2018-06-30T06:36:14.714Z,82.67
2018-06-30T06:38:43.646Z,83.25
2018-06-30T06:41:12.627Z,85.00
2018-06-30T06:43:41.585Z,84.18
2018-06-30T06:46:10.581Z,82.48
2018-06-30T06:48:40.159Z,80.84
2018-06-30T06:51:09.118Z,83.53
2018-06-30T06:53:38.152Z,80.80
2018-06-30T06:56:07.109Z,83.17
2018-06-30T06:58:36.012Z,84.55
2018-06-30T07:01:05.135Z,83.47
2018-06-30T07:03:34.129Z,84.32
2018-06-30T07:06:03.121Z,87.96
2018-06-30T07:08:32.037Z,86.02
2018-06-30T07:11:01.057Z,87.83
2018-06-30T07:13:30.025Z,87.92
2018-06-30T07:15:59.049Z,84.90
2018-06-30T07:18:28.107Z,86.89
2018-06-30T07:20:57.209Z,90.12
2018-06-30T07:23:26.198Z,90.51
2018-06-30T07:25:55.198Z,88.14
2018-06-30T07:28:24.137Z,89.40
2018-06-30T07:30:53.083Z,90.50
2018-06-30T07:33:22.112Z,88.25
2018-06-30T07:35:51.037Z,88.93
2018-06-30T07:38:20.037Z,90.67
2018-06-30T07:40:49.007Z,88.84
2018-06-30T07:43:18.018Z,89.87
2018-06-30T07:45:47.067Z,90.76
2018-06-30T07:48:16.153Z,90.36
2018-06-30T07:50:45.153Z,89.08
2018-06-30T07:53:14.184Z,91.09
2018-06-30T07:55:43.223Z,90.07
2018-06-30T07:58:12.222Z,91.52
2018-06-30T08:00:41.212Z,91.71
2018-06-30T08:03:10.305Z,92.11
2018-06-30T08:05:39.256Z,90.40
2018-06-30T08:08:08.260Z,90.81
2018-06-30T08:10:37.282Z,90.06
2018-06-30T08:13:06.466Z,91.15
2018-06-30T08:15:35.417Z,92.31
2018-06-30T08:18:04.428Z,89.87
2018-06-30T08:20:33.396Z,89.77
2018-06-30T08:23:02.344Z,90.25
2018-06-30T08:25:31.323Z,90.14
2018-06-30T08:28:00.316Z,89.33
2018-06-30T08:30:29.284Z,89.08
2018-06-30T08:32:58.244Z,91.06
2018-06-30T08:35:27.248Z,89.94
2018-06-30T08:37:56.706Z,91.38
2018-06-30T08:40:25.729Z,89.82
2018-06-30T08:42:54.691Z,90.24
2018-06-30T08:45:23.692Z,89.96
2018-06-30T08:47:52.702Z,90.83
2018-06-30T08:50:22.474Z,90.07
2018-06-30T08:52:51.679Z,88.88
2018-06-30T08:55:20.829Z,88.44
2018-06-30T08:57:50.084Z,90.04
2018-06-30T09:00:19.127Z,88.98
2018-06-30T09:02:48.090Z,87.14
2018-06-30T09:05:17.180Z,89.37
2018-06-30T09:07:46.240Z,90.97
2018-06-30T09:10:15.283Z,90.52
2018-06-30T09:12:44.293Z,92.18
2018-06-30T09:15:13.345Z,89.99
2018-06-30T09:17:42.417Z,91.87
2018-06-30T09:20:11.495Z,93.09
2018-06-30T09:22:40.534Z,92.05
2018-06-30T09:25:09.506Z,91.34
2018-06-30T09:27:38.738Z,90.32
2018-06-30T09:30:09.250Z,88.50
2018-06-30T09:32:39.207Z,89.42
2018-06-30T09:35:08.343Z,87.93
2018-06-30T09:37:37.418Z,85.59
2018-06-30T09:40:06.447Z,84.96
2018-06-30T09:42:35.489Z,83.05
2018-06-30T09:45:04.496Z,82.82
2018-06-30T09:47:33.570Z,81.93
2018-06-30T09:50:02.689Z,81.33
2018-06-30T09:52:31.700Z,78.04
2018-06-30T09:55:00.709Z,76.62
2018-06-30T09:57:29.690Z,78.42
2018-06-30T09:59:59.813Z,76.46
2018-06-30T10:02:29.766Z,76.47
2018-06-30T10:04:58.774Z,77.12
2018-06-30T10:07:27.781Z,76.26
2018-06-30T10:09:56.792Z,75.56
2018-06-30T10:12:25.780Z,72.58
2018-06-30T10:14:55.651Z,71.44
2018-06-30T10:17:24.691Z,69.03
2018-06-30T10:19:53.688Z,68.57
2018-06-30T10:22:22.903Z,69.09
2018-06-30T10:24:52.862Z,68.29
2018-06-30T10:27:21.945Z,71.68
2018-06-30T10:29:52.072Z,70.63
2018-06-30T10:32:21.036Z,70.99
2018-06-30T10:34:50.027Z,72.30
2018-06-30T10:37:19.395Z,70.93
2018-06-30T10:39:48.395Z,71.56
2018-06-30T10:42:17.404Z,72.76
2018-06-30T10:44:46.390Z,71.10
2018-06-30T10:47:17.389Z,70.90
2018-06-30T10:49:46.325Z,71.19
2018-06-30T10:52:15.411Z,71.18
2018-06-30T10:54:44.402Z,72.61
2018-06-30T10:57:13.500Z,75.01
2018-06-30T10:59:42.508Z,80.47
2018-06-30T11:02:11.507Z,86.30
2018-06-30T11:04:40.621Z,89.11
2018-06-30T11:07:09.555Z,92.69
2018-06-30T11:09:38.551Z,95.73
2018-06-30T11:12:07.614Z,96.06
2018-06-30T11:14:36.743Z,96.79
2018-06-30T11:17:05.800Z,100.00
2018-06-30T11:19:34.790Z,100.00
2018-06-30T11:22:10.267Z,100.00
2018-06-30T11:24:39.350Z,100.00
2018-06-30T11:27:08.479Z,100.00
2018-06-30T11:29:37.448Z,100.00
2018-06-30T11:32:06.436Z,100.00
2018-06-30T11:34:35.518Z,100.00
2018-06-30T11:37:04.638Z,100.00
2018-06-30T11:39:33.834Z,100.00
2018-06-30T11:42:02.782Z,98.86
2018-06-30T11:44:31.813Z,96.96
2018-06-30T11:47:00.869Z,94.83
2018-06-30T11:49:29.842Z,94.55
2018-06-30T11:51:58.872Z,95.06
2018-06-30T11:54:27.907Z,97.88
2018-06-30T11:56:56.891Z,99.47
2018-06-30T11:59:27.211Z,100.00
2018-06-30T12:01:56.153Z,100.00
2018-06-30T12:04:25.190Z,100.00
2018-06-30T12:06:54.869Z,100.00
2018-06-30T12:09:23.937Z,100.00
2018-06-30T12:11:53.243Z,100.00
2018-06-30T12:14:22.257Z,100.00
2018-06-30T12:16:51.877Z,100.00
2018-06-30T12:19:20.928Z,100.00
2018-06-30T12:21:49.886Z,100.00
2018-06-30T12:24:18.864Z,100.00
2018-06-30T12:26:47.861Z,100.00
2018-06-30T12:29:16.874Z,100.00
2018-06-30T12:31:45.850Z,100.00
2018-06-30T12:34:14.781Z,100.00
2018-06-30T12:36:43.764Z,100.00
2018-06-30T12:39:12.776Z,100.00
2018-06-30T12:41:41.769Z,100.00
2018-06-30T12:44:10.745Z,100.00
2018-06-30T12:46:39.659Z,100.00
2018-06-30T12:49:08.615Z,100.00
2018-06-30T12:51:37.612Z,100.00
2018-06-30T12:54:06.628Z,100.00
2018-06-30T12:56:35.626Z,100.00
2018-06-30T12:59:04.601Z,100.00
2018-06-30T13:01:33.568Z,100.00
2018-06-30T13:04:02.539Z,100.00
2018-06-30T13:06:31.890Z,100.00
2018-06-30T13:09:00.857Z,100.00
2018-06-30T13:11:29.858Z,100.00
2018-06-30T13:13:58.785Z,100.00
2018-06-30T13:16:27.914Z,100.00
2018-06-30T13:18:56.970Z,100.00
2018-06-30T13:21:26.010Z,100.00
2018-06-30T13:23:54.986Z,99.57
2018-06-30T13:26:24.024Z,99.85
2018-06-30T13:28:53.003Z,98.19
2018-06-30T13:31:22.126Z,94.56
2018-06-30T13:33:51.130Z,96.35
2018-06-30T13:36:20.315Z,94.55
2018-06-30T13:38:50.326Z,96.10
2018-06-30T13:41:19.283Z,97.61
2018-06-30T13:43:48.297Z,99.15
2018-06-30T13:46:17.269Z,98.82
2018-06-30T13:48:46.173Z,98.35
2018-06-30T13:51:15.072Z,97.67
2018-06-30T13:53:44.067Z,96.32
2018-06-30T13:56:13.065Z,96.07
2018-06-30T13:58:42.070Z,94.26
2018-06-30T14:01:11.009Z,94.96
2018-06-30T14:03:40.260Z,95.86
2018-06-30T14:06:09.285Z,98.43
2018-06-30T14:08:38.359Z,97.87
2018-06-30T14:11:07.338Z,100.00
2018-06-30T14:13:36.243Z,100.00
2018-06-30T14:16:05.120Z,100.00
2018-06-30T14:18:34.860Z,100.00
2018-06-30T14:21:04.147Z,100.00
2018-06-30T14:23:33.922Z,100.00
2018-06-30T14:26:03.466Z,100.00
2018-06-30T14:28:32.402Z,100.00
2018-06-30T14:31:01.542Z,100.00
2018-06-30T14:33:30.487Z,100.00
2018-06-30T14:35:59.413Z,100.00
2018-06-30T14:38:28.399Z,100.00
2018-06-30T14:40:57.399Z,100.00
2018-06-30T14:43:26.373Z,100.00
2018-06-30T14:45:56.057Z,100.00
2018-06-30T14:48:24.953Z,100.00
2018-06-30T14:50:53.862Z,100.00
2018-06-30T14:53:22.758Z,100.00
2018-06-30T14:55:51.693Z,100.00
2018-06-30T14:58:20.629Z,100.00
2018-06-30T15:00:49.739Z,100.00
2018-06-30T15:03:18.663Z,100.00
2018-06-30T15:05:47.653Z,100.00
2018-06-30T15:08:17.233Z,100.00
2018-06-30T15:10:46.268Z,100.00
2018-06-30T15:13:15.172Z,100.00
2018-06-30T15:15:44.068Z,100.00
2018-06-30T15:18:13.041Z,100.00
2018-06-30T15:20:42.512Z,100.00
2018-06-30T15:23:11.389Z,97.87
2018-06-30T15:25:40.277Z,97.55
2018-06-30T15:28:09.163Z,97.45
2018-06-30T15:30:38.213Z,98.03
2018-06-30T15:33:07.140Z,96.93
2018-06-30T15:35:36.054Z,96.74
2018-06-30T15:38:05.233Z,98.35
2018-06-30T15:40:34.367Z,100.00
2018-06-30T15:43:03.251Z,100.00
2018-06-30T15:45:32.445Z,100.00
2018-06-30T15:48:01.314Z,100.00
2018-06-30T15:50:30.164Z,100.00
2018-06-30T15:52:59.076Z,100.00
2018-06-30T15:55:28.008Z,100.00
2018-06-30T15:57:56.921Z,100.00
2018-06-30T16:00:25.786Z,100.00
2018-06-30T16:02:54.682Z,100.00
2018-06-30T16:05:23.636Z,100.00
2018-06-30T16:07:52.487Z,100.00
2018-06-30T16:10:21.438Z,100.00
2018-06-30T16:12:50.394Z,100.00
2018-06-30T16:15:19.254Z,100.00
2018-06-30T16:17:48.317Z,100.00
2018-06-30T16:20:17.455Z,100.00
2018-06-30T16:22:47.480Z,100.00
2018-06-30T16:25:16.493Z,100.00
2018-06-30T16:27:45.457Z,100.00
2018-06-30T16:30:14.288Z,100.00
2018-06-30T16:32:44.209Z,100.00
2018-06-30T16:35:13.105Z,100.00
2018-06-30T16:37:42.066Z,100.00
2018-06-30T16:40:10.976Z,100.00
2018-06-30T16:42:39.918Z,100.00
2018-06-30T16:45:08.789Z,100.00
2018-06-30T16:47:37.651Z,100.00
2018-06-30T16:50:06.946Z,100.00
2018-06-30T16:52:36.053Z,100.00
2018-06-30T16:55:04.940Z,100.00
2018-06-30T16:57:33.832Z,100.00
2018-06-30T17:00:02.851Z,100.00
2018-06-30T17:02:31.785Z,100.00
2018-06-30T17:05:00.734Z,100.00
2018-06-30T17:07:29.630Z,100.00
2018-06-30T17:09:58.595Z,100.00
2018-06-30T17:12:27.609Z,100.00
2018-06-30T17:14:56.729Z,100.00
2018-06-30T17:17:25.580Z,100.00
2018-06-30T17:19:54.497Z,100.00
2018-06-30T17:22:23.480Z,100.00
2018-06-30T17:24:52.298Z,100.00
2018-06-30T17:27:21.167Z,100.00
2018-06-30T17:29:50.134Z,100.00
2018-06-30T17:32:18.989Z,100.00
2018-06-30T17:34:47.897Z,100.00
2018-06-30T17:37:16.760Z,100.00
2018-06-30T17:39:45.652Z,100.00
2018-06-30T17:42:14.635Z,100.00
2018-06-30T17:44:43.649Z,100.00
2018-06-30T17:47:12.572Z,100.00
2018-06-30T17:49:41.461Z,100.00
2018-06-30T17:52:10.952Z,100.00
2018-06-30T17:54:39.826Z,100.00
2018-06-30T17:57:08.766Z,100.00
2018-06-30T17:59:37.690Z,100.00
2018-06-30T18:02:06.589Z,100.00
2018-06-30T18:04:35.515Z,100.00
2018-06-30T18:07:05.067Z,100.00
2018-06-30T18:09:34.954Z,100.00
2018-06-30T18:12:03.873Z,100.00
2018-06-30T18:14:32.732Z,100.00
2018-06-30T18:17:02.310Z,100.00
2018-06-30T18:19:31.214Z,100.00
2018-06-30T18:22:01.094Z,100.00
2018-06-30T18:24:31.090Z,100.00
2018-06-30T18:27:00.118Z,100.00
2018-06-30T18:29:29.025Z,100.00
2018-06-30T18:31:57.926Z,100.00
2018-06-30T18:34:26.952Z,100.00
2018-06-30T18:36:56.087Z,100.00
2018-06-30T18:39:25.216Z,100.00
2018-06-30T18:41:54.136Z,100.00
2018-06-30T18:44:23.091Z,100.00
2018-06-30T18:46:52.150Z,100.00
2018-06-30T18:49:21.070Z,100.00
2018-06-30T18:51:49.993Z,100.00
2018-06-30T18:54:18.974Z,100.00
2018-06-30T18:56:47.999Z,100.00
2018-06-30T18:59:17.659Z,100.00
2018-06-30T19:01:46.659Z,100.00
2018-06-30T19:04:15.779Z,100.00
2018-06-30T19:06:44.725Z,100.00
2018-06-30T19:09:14.302Z,100.00
2018-06-30T19:11:44.468Z,100.00
2018-06-30T19:14:13.880Z,100.00
2018-06-30T19:16:43.105Z,100.00
2018-06-30T19:19:12.075Z,100.00
2018-06-30T19:21:41.655Z,100.00
2018-06-30T19:24:10.823Z,100.00
2018-06-30T19:26:40.058Z,100.00
2018-06-30T19:29:09.511Z,100.00
2018-06-30T19:31:39.535Z,100.00
2018-06-30T19:34:09.392Z,100.00
2018-06-30T19:36:40.234Z,100.00
2018-06-30T19:39:11.175Z,100.00
2018-06-30T19:41:41.243Z,100.00
2018-06-30T19:44:11.727Z,100.00
2018-06-30T19:46:40.990Z,100.00
2018-06-30T19:49:10.439Z,100.00
2018-06-30T19:51:39.606Z,100.00
2018-06-30T19:54:09.636Z,100.00
2018-06-30T19:56:38.634Z,100.00
2018-06-30T19:59:07.704Z,100.00
2018-06-30T20:01:36.666Z,100.00
2018-06-30T20:04:05.626Z,100.00
2018-06-30T20:06:34.982Z,100.00
2018-06-30T20:09:04.129Z,100.00
2018-06-30T20:11:33.087Z,100.00
2018-06-30T20:14:02.020Z,100.00
2018-06-30T20:16:30.996Z,100.00
2018-06-30T20:18:59.950Z,100.00
2018-06-30T20:21:28.831Z,100.00
2018-06-30T20:23:57.750Z,100.00
2018-06-30T20:26:26.682Z,100.00
2018-06-30T20:28:55.706Z,100.00
2018-06-30T20:31:24.665Z,100.00
2018-06-30T20:33:53.601Z,100.00
2018-06-30T20:36:22.538Z,100.00
2018-06-30T20:38:51.705Z,100.00
2018-06-30T20:41:20.561Z,100.00
2018-06-30T20:43:49.425Z,100.00
2018-06-30T20:46:18.312Z,100.00
2018-06-30T20:48:47.272Z,100.00
2018-06-30T20:51:16.112Z,100.00
2018-06-30T20:53:44.930Z,100.00
2018-06-30T20:56:13.852Z,100.00
2018-06-30T20:58:42.741Z,100.00
2018-06-30T21:01:11.626Z,100.00
2018-06-30T21:03:40.510Z,100.00
2018-06-30T21:06:09.371Z,100.00
2018-06-30T21:08:38.329Z,100.00
2018-06-30T21:11:07.181Z,100.00
2018-06-30T21:13:36.008Z,100.00
2018-06-30T21:16:04.952Z,100.00
2018-06-30T21:18:33.778Z,100.00
2018-06-30T21:21:02.674Z,100.00
2018-06-30T21:23:31.505Z,100.00
2018-06-30T21:26:00.252Z,100.00
2018-06-30T21:28:29.048Z,100.00
2018-06-30T21:30:57.795Z,100.00
2018-06-30T21:33:26.577Z,100.00
2018-06-30T21:35:55.346Z,100.00
2018-06-30T21:38:24.087Z,100.00
2018-06-30T21:40:52.825Z,100.00
2018-06-30T21:43:21.570Z,100.00
2018-06-30T21:45:50.348Z,100.00
2018-06-30T21:48:19.110Z,100.00
2018-06-30T21:50:47.869Z,100.00
2018-06-30T21:53:16.642Z,100.00
2018-06-30T21:55:46.054Z,100.00
2018-06-30T21:58:14.830Z,100.00
2018-06-30T22:00:50.626Z,100.00
2018-06-30T22:03:22.222Z,100.00
2018-06-30T22:05:51.867Z,100.00
2018-06-30T22:08:20.681Z,100.00
2018-06-30T22:10:49.657Z,100.00
2018-06-30T22:13:18.921Z,100.00
2018-06-30T22:15:47.767Z,100.00
2018-06-30T22:18:16.648Z,100.00
2018-06-30T22:20:45.405Z,100.00
2018-06-30T22:23:14.175Z,100.00
2018-06-30T22:25:42.958Z,100.00
2018-06-30T22:28:11.717Z,100.00
2018-06-30T22:30:40.485Z,100.00
2018-06-30T22:33:09.228Z,100.00
2018-06-30T22:35:37.973Z,100.00
2018-06-30T22:38:06.828Z,100.00
2018-06-30T22:40:35.549Z,100.00
2018-06-30T22:43:04.312Z,100.00
2018-06-30T22:45:33.044Z,100.00
2018-06-30T22:48:01.853Z,100.00
2018-06-30T22:50:30.573Z,100.00
2018-06-30T22:52:59.293Z,100.00
2018-06-30T22:55:28.048Z,100.00
2018-06-30T22:57:56.805Z,100.00
2018-06-30T23:00:25.595Z,100.00
2018-06-30T23:02:54.359Z,100.00
2018-06-30T23:05:23.061Z,100.00
2018-06-30T23:07:51.768Z,100.00
2018-06-30T23:10:20.474Z,100.00
2018-06-30T23:12:49.218Z,100.00
2018-06-30T23:15:18.010Z,100.00
2018-06-30T23:17:46.761Z,100.00
2018-06-30T23:20:15.499Z,100.00
2018-06-30T23:22:59.453Z,100.00
2018-06-30T23:25:29.283Z,100.00
2018-06-30T23:27:58.476Z,100.00
2018-06-30T23:30:27.776Z,100.00
2018-06-30T23:32:56.505Z,100.00
2018-06-30T23:35:26.252Z,100.00
2018-06-30T23:37:56.196Z,100.00
2018-06-30T23:40:25.004Z,100.00
2018-06-30T23:42:53.931Z,100.00
2018-06-30T23:45:23.115Z,100.00
2018-06-30T23:47:52.665Z,100.00
2018-06-30T23:50:21.756Z,100.00
2018-06-30T23:52:50.520Z,100.00
2018-06-30T23:55:19.270Z,100.00
2018-06-30T23:57:48.118Z,100.00
